Burns Pinion Ridge Reserve, California Weather observations

Data are for 10 minute period ending at time listed.
 Day   Time   Solar   Ave.   Ave.  Ave.  Vector  Max.   Baro.   Total    
  of    of     Rad.   Air    Rel.  Wind   Wind   Wind  Press.  Precip.   
Year   Day            Temp.  Hum.  Speed  Dir.   Gust                    
2017   (PST)  Kw/m2    F      %     mph   deg.    mph    mb.     in.     
-------------------------------------------------------------------------
  50   15:10   0.55   51.8    68    9.3   153    16.5   871.2    0.00 
  50   15:20   0.44   51.7    69    7.8   165    15.3   871.2    0.00 
  50   15:30   0.38   52.2    68    7.8   155    12.1   871.1    0.00 
  50   15:40   0.28   50.3    72    9.6   157    16.7   871.4    0.00 
  50   15:50   0.22   49.0    76    8.7   161    14.5   871.5    0.00 
  50   16:00   0.10   48.5    76    6.9   170    13.4   871.6    0.00 
  50   16:10   0.10   47.8    78    6.4   181    12.9   871.8    0.00 
  50   16:20   0.06   47.2    80    6.9   168    10.8   871.8    0.00 
  50   16:30   0.05   46.6    80    8.2   201    14.0   872.1    0.00 
  50   16:40   0.07   45.9    80    9.8   207    14.2   872.2    0.00 
  50   16:50   0.14   46.9    78    9.2   207    14.7   872.3    0.00 
  50   17:00   0.08   47.0    78    7.2   207    12.2   872.4    0.00 
  50   17:10   0.03   46.2    80    7.3   198    12.2   872.5    0.00 
  50   17:20   0.02   45.6    82    8.4   204    15.2   872.7    0.00 
  50   17:30   0.01   45.1    84    8.9   206    14.6   873.0    0.00 
  50   17:40   0.00   44.8    85    7.0   201    11.1   873.1    0.00 
  50   17:50   0.00   44.6    86    8.3   203    13.1   873.1    0.00 
  50   18:00   0.00   44.3    87    7.8   199    12.6   873.1    0.00 
  50   18:10   0.00   44.1    88    8.4   203    13.0   873.5    0.00 
  50   18:20   0.00   43.9    89    8.6   206    14.2   873.7    0.00 
  50   18:30   0.00   43.7    90    6.8   206    10.8   873.9    0.00 
  50   18:40   0.00   43.6    90    7.6   200    12.1   873.9    0.00 
  50   18:50   0.00   43.6    90    8.3   205    12.4   874.2    0.00 
  50   19:00   0.00   43.5    90    7.5   202    12.2   874.3    0.00 
  50   19:10   0.00   43.3    91    7.3   201    13.7   874.5    0.00 
  50   19:20   0.00   43.1    91    6.9   205    12.0   874.7    0.00 
  50   19:30   0.00   43.0    92    7.0   202     9.6   875.0    0.00 
  50   19:40   0.00   42.9    92    7.9   205    11.2   875.0    0.00 
  50   19:50   0.00   43.0    91    8.7   208    11.9   875.2    0.00 
  50   20:00   0.00   42.9    91    7.7   208    10.2   875.5    0.00 
  50   20:10   0.00   43.0    90    8.4   208    11.6   875.6    0.00 
  50   20:20   0.00   43.0    89    7.1   207     9.8   875.6    0.00 
  50   20:30   0.00   43.1    89    6.9   209     9.5   875.6    0.00 
  50   20:40   0.00   43.0    89    6.1   211     8.3   875.8    0.00 
  50   20:50   0.00   43.0    89    6.4   210    10.0   875.9    0.00 
  50   21:00   0.00   43.0    88    6.6   215     9.3   876.1    0.00 
  50   21:10   0.00   43.0    88    6.0   214     9.9   876.0    0.00 
  50   21:20   0.00   43.1    87    5.9   216     8.8   876.1    0.00 
  50   21:30   0.00   43.3    86    5.9   211     9.9   876.2    0.00 
  50   21:40   0.00   43.5    85    6.8   216    10.4   876.2    0.00 
  50   21:50   0.00   43.4    85    5.6   215     8.0   876.3    0.00 
  50   22:00   0.00   43.5    85    7.1   208    13.2   876.3    0.00 
  50   22:10   0.00   43.8    84    7.4   209    12.0   876.4    0.00 
  50   22:20   0.00   44.1    83    9.5   208    12.9   876.4    0.00 
  50   22:30   0.00   44.0    84    8.8   206    11.8   876.5    0.00 
  50   22:40   0.00   44.0    85    6.0   200     9.2   876.5    0.00 
  50   22:50   0.00   44.0    85    6.3   200     9.9   876.5    0.00 
  50   23:00   0.00   44.1    84    8.7   207    11.0   876.6    0.00 
  50   23:10   0.00   44.1    84    8.5   208    11.6   876.7    0.00 
  50   23:20   0.00   44.1    84    8.1   209    11.1   876.8    0.00 
  50   23:30   0.00   44.1    84    8.7   208    12.3   876.7    0.00 
  50   23:40   0.00   44.1    84    9.9   208    12.9   876.7    0.00 
  50   23:50   0.00   43.9    84    8.1   206    13.0   876.8    0.00 
  51    0:00   0.00   43.7    85    8.3   204    11.8   876.8    0.00 
  51    0:10   0.00   43.6    85    8.1   214    12.1   877.0    0.00 
  51    0:20   0.00   43.6    85    7.6   214    12.7   877.2    0.00 
  51    0:30   0.00   43.6    84    8.4   196    12.9   877.1    0.00 
  51    0:40   0.00   43.2    85    8.8   207    12.8   877.1    0.00 
  51    0:50   0.00   43.3    85    9.1   208    12.1   877.0    0.00 
  51    1:00   0.00   43.6    84    9.4   212    12.3   877.0    0.00 
  51    1:10   0.00   43.4    84   10.2   212    13.7   877.1    0.00 
  51    1:20   0.00   43.5    83    8.8   210    13.6   877.1    0.00 
  51    1:30   0.00   43.1    84    7.5   209    12.7   877.1    0.00 
  51    1:40   0.00   42.7    85    7.4   210    11.5   877.1    0.00 
  51    1:50   0.00   42.6    86    6.9   204    11.1   876.8    0.00 
  51    2:00   0.00   42.5    86    6.9   215    10.7   877.0    0.00 
  51    2:10   0.00   42.5    86    6.8   223    12.2   877.3    0.00 
  51    2:20   0.00   42.7    86    7.3   213    10.4   877.3    0.00 
  51    2:30   0.00   42.6    86    6.2   212     8.9   877.4    0.00 
  51    2:40   0.00   42.5    87    6.6   210     9.7   877.3    0.00 
  51    2:50   0.00   42.3    87    5.0   198     7.8   877.3    0.00 
  51    3:00   0.00   42.4    87    6.8   210     9.3   877.3    0.00 
  51    3:10   0.00   42.6    87    6.6   205    10.9   877.2    0.00 
  51    3:20   0.00   42.7    86    8.9   211    12.0   877.2    0.00 
  51    3:30   0.00   42.5    87    7.1   214    10.9   877.2    0.00 
  51    3:40   0.00   42.3    88    7.3   218    11.1   877.3    0.00 
  51    3:50   0.00   42.3    88    7.5   212    11.2   877.4    0.00 
  51    4:00   0.00   42.2    88    6.4   212    11.0   877.5    0.00 
  51    4:10   0.00   42.1    89    6.9   212    10.1   877.3    0.00 
  51    4:20   0.00   42.0    89    8.2   209    11.7   877.5    0.00 
  51    4:30   0.00   41.9    90    7.7   210    10.3   877.7    0.00 
  51    4:40   0.00   42.0    89    7.2   207    11.0   877.8    0.00 
  51    4:50   0.00   42.2    89    8.1   206    10.6   877.8    0.00 
  51    5:00   0.00   42.1    89    6.9   197    10.7   877.8    0.00 
  51    5:10   0.00   42.2    89    8.7   206    12.0   877.7    0.00 
  51    5:20   0.00   42.4    88    8.2   211    11.8   877.8    0.00 
  51    5:30   0.00   42.2    88    8.3   209    12.9   878.0    0.00 
  51    5:40   0.00   42.4    88    8.5   209    14.2   878.2    0.00 
  51    5:50   0.00   42.1    88    9.2   206    14.5   878.2    0.00 
  51    6:00   0.00   41.9    89    9.8   210    13.7   878.5    0.00 
  51    6:10   0.00   41.8    90    9.1   207    13.3   878.5    0.00 
  51    6:20   0.00   41.5    90    8.4   203    11.1   878.4    0.00 
  51    6:30   0.00   41.6    90    8.5   210    13.2   878.5    0.00 
  51    6:40   0.01   41.7    90    9.6   209    15.6   878.7    0.00 
  51    6:50   0.01   42.1    89   11.4   210    16.1   878.9    0.00 
  51    7:00   0.01   42.1    89   11.4   209    15.2   879.1    0.00 
  51    7:10   0.01   42.1    90   10.2   210    14.6   879.3    0.00 
  51    7:20   0.10   42.6    89    9.8   210    14.9   879.3    0.00 
  51    7:30   0.15   43.8    86   10.0   210    14.8   879.4    0.00 
  51    7:40   0.19   44.3    85   10.2   208    14.8   879.7    0.00 
  51    7:50   0.22   44.8    84    9.2   208    13.9   879.8    0.00 
  51    8:00   0.26   45.4    83    8.8   200    14.5   879.8    0.00 
  51    8:10   0.29   45.8    82    8.8   207    13.8   879.8    0.00 
  51    8:20   0.31   46.1    81   10.1   200    16.3   879.9    0.00 
  51    8:30   0.36   45.8    82   11.0   208    16.1   880.1    0.00 
  51    8:40   0.30   46.2    81   11.5   202    18.3   880.2    0.00 
  51    8:50   0.28   45.0    85   10.4   204    19.1   880.4    0.00 
  51    9:00   0.40   45.9    83    9.8   203    17.0   880.4    0.00 
  51    9:10   0.23   45.0    86   12.6   207    19.2   880.4    0.00 
  51    9:20   0.23   45.3    86   11.3   194    20.2   880.5    0.00 
  51    9:30   0.23   44.8    87   12.6   211    18.6   880.6    0.00 
  51    9:40   0.28   45.1    88   11.6   203    19.9   880.7    0.00 
  51    9:50   0.32   45.5    87   10.3   195    20.0   880.7    0.00 
  51   10:00   0.32   46.4    86    6.7   205    11.7   880.8    0.00 
  51   10:10   0.29   46.5    85    9.8   203    18.0   880.8    0.00 
  51   10:20   0.29   46.0    87   11.0   215    16.4   880.9    0.00 
  51   10:30   0.24   46.0    88    9.5   208    18.0   881.0    0.00 
  51   10:40   0.24   46.1    88   10.5   204    17.5   880.9    0.00 
  51   10:50   0.22   46.1    89   11.1   204    19.5   880.9    0.00 
  51   11:00   0.23   46.1    90   10.9   212    19.6   881.0    0.00 
  51   11:10   0.21   46.5    90   10.0   203    20.6   881.1    0.00 
  51   11:20   0.24   46.5    90   10.4   203    21.2   881.0    0.00 
  51   11:30   0.21   46.6    90   10.6   205    23.6   880.9    0.00 
  51   11:40   0.25   47.1    89    9.9   207    15.4   880.8    0.00 
  51   11:50   0.24   46.9    90   11.8   208    21.6   880.7    0.00 
  51   12:00   0.22   46.9    90   10.4   207    21.5   880.5    0.00 
  51   12:10   0.24   46.9    91   12.1   214    18.8   880.5    0.00 
  51   12:20   0.24   46.7    91   12.9   210    22.8   880.6    0.00 
  51   12:30   0.22   46.9    91   12.6   205    19.4   880.5    0.00 
  51   12:40   0.23   47.0    90   11.8   206    18.0   880.5    0.00 
  51   12:50   0.29   47.6    90   11.6   207    18.3   880.4    0.00 
  51   13:00   0.33   47.9    89   10.4   216    15.3   880.2    0.00 
  51   13:10   0.25   48.5    88   10.4   210    18.6   880.2    0.00 
  51   13:20   0.25   48.5    88   10.3   204    18.2   880.1    0.00 
  51   13:30   0.19   48.8    88    9.4   208    16.1   880.1    0.00 
  51   13:40   0.21   49.3    86    9.6   199    17.0   880.1    0.00 
  51   13:50   0.18   49.0    86   11.0   199    20.4   880.1    0.00 
  51   14:00   0.19   48.9    87   10.9   199    19.2   880.0    0.00 
  51   14:10   0.31   49.4    86   11.6   207    20.2   879.9    0.00 
  51   14:20   0.18   49.1    87   10.8   204    16.4   880.0    0.00 
  51   14:30   0.17   49.5    87    9.6   205    15.0   880.1    0.00 
  51   14:40   0.19   49.9    86    9.3   200    15.1   880.1    0.00 
  51   14:50   0.17   49.6    87   10.0   209    16.4   880.3    0.00 
  51   15:00   0.16   49.6    87    8.8   210    14.0   880.4    0.00 

Return to Burns Pinion Ridge Reserve graphs page.


Western Regional Climate Center,wrcc@dri.edu